Terminal Aerodrome Forecast
Issued by NWS Wilmington, OH

Current Version | Previous Version | Text Only | Print | Product List | Glossary Off
Versions: 1 2 3 4 5 6 7 8 9 10 11 12 13 14 15 16 17 18

000
FTUS41 KILN 270534
TAFDAY
TAF
KDAY 270534Z 2706/2806 23009KT P6SM FEW040
     FM271300 23005KT P6SM BKN025
     FM271500 22004KT P6SM SCT025 BKN035
     FM272100 17007KT P6SM VCSH SCT025 BKN080
     FM280000 15005KT P6SM -SHRA VCTS SCT025CB OVC060
     FM280300 17005KT 6SM -SHRA VCTS BKN025CB=

USA.gov is the U.S. government's official web portal to all federal, state and local government web resources and services.